KVEL/VEL METAR and TAF weather

Enter ICAO airport designator
Station Type Date Time Source
KVEL METAR 2020/04/05 11:53 UTC NOAA

KVEL 051153Z AUTO 32004KT 10SM CLR 02/M06 A2974 RMK AO2 SLP052 T00171056 10067 21006 53005


Station Type Date Time Source
KVEL Decoded METAR 2020/04/05 11:53 UTC NOAA

VERNAL AIRPORT, UT, United States (KVEL) 40-26N 109-30W 1604M
Apr 05, 2020 - 07:53 AM EDT / 2020.04.05 1153 UTC
Wind: from the NW (320 degrees) at 5 MPH (4 KT):0
Visibility: 10 mile(s):0
Sky conditions: clear
Temperature: 35.1 F (1.7 C)
Dew Point: 21.9 F (-5.6 C)
Relative Humidity: 58%
Pressure (altimeter): 29.74 in. Hg (1007 hPa)
Pressure tendency: 0.01 inches (0.5 hPa) higher than three hours ago
ob: KVEL 051153Z AUTO 32004KT 10SM CLR 02/M06 A2974 RMK AO2 SLP052 T00171056 10067 21006 53005
cycle: 12

Station Type Date Time Source
KVEL TAF 2020/04/05 12:24 UTC NOAA

TAF KVEL 051123Z 0512/0612 29005KT P6SM FEW100
FM052000 21011G18KT P6SM VCSH FEW070 SCT100
FM060100 20007KT P6SM SCT070 BKN100
FM060500 28005KT P6SM SCT100

Example: see airport list